createdAt,value
2019-01-13T00:01:51.521Z,95388.84
2019-01-13T00:04:24.132Z,95387.91
2019-01-13T00:06:57.039Z,95377.48
2019-01-13T00:09:29.673Z,95377.02
2019-01-13T00:12:02.208Z,95375.55
2019-01-13T00:14:34.789Z,95374.55
2019-01-13T00:17:07.326Z,95378.14
2019-01-13T00:19:39.927Z,95381.87
2019-01-13T00:22:12.646Z,95367.65
2019-01-13T00:24:45.351Z,95368.76
2019-01-13T00:27:17.911Z,95380.05
2019-01-13T00:29:50.500Z,95383.82
2019-01-13T00:32:23.020Z,95382.86
2019-01-13T00:34:55.641Z,95369.67
2019-01-13T00:37:28.173Z,95372.55
2019-01-13T00:40:00.772Z,95371.72
2019-01-13T00:42:33.431Z,95369.81
2019-01-13T00:45:07.158Z,95359.32
2019-01-13T00:47:39.765Z,95368.47
2019-01-13T00:50:14.987Z,95364.61
2019-01-13T00:52:47.576Z,95348.58
2019-01-13T00:55:20.202Z,95350.99
2019-01-13T00:57:52.800Z,95345.00
2019-01-13T01:00:26.757Z,95337.17
2019-01-13T01:02:59.864Z,95344.72
2019-01-13T01:05:32.484Z,95339.80
2019-01-13T01:08:05.099Z,95336.77
2019-01-13T01:10:37.652Z,95345.56
2019-01-13T01:13:10.330Z,95342.17
2019-01-13T01:15:43.033Z,95355.85
2019-01-13T01:18:15.725Z,95352.61
2019-01-13T01:20:50.824Z,95358.63
2019-01-13T01:23:23.444Z,95366.23
2019-01-13T01:25:55.992Z,95367.73
2019-01-13T01:28:28.574Z,95357.44
2019-01-13T01:31:01.168Z,95352.61
2019-01-13T01:33:33.807Z,95347.61
2019-01-13T01:36:06.340Z,95353.72
2019-01-13T01:38:38.937Z,95339.56
2019-01-13T01:41:11.499Z,95340.23
2019-01-13T01:43:44.073Z,95342.52
2019-01-13T01:46:16.748Z,95346.84
2019-01-13T01:48:49.308Z,95344.27
2019-01-13T01:51:21.856Z,95354.42
2019-01-13T01:53:54.408Z,95350.18
2019-01-13T01:56:27.050Z,95349.39
2019-01-13T01:58:59.640Z,95346.91
2019-01-13T02:01:32.206Z,95344.72
2019-01-13T02:04:04.790Z,95362.05
2019-01-13T02:06:37.342Z,95346.84
2019-01-13T02:09:10.318Z,95356.61
2019-01-13T02:11:42.939Z,95354.09
2019-01-13T02:14:15.432Z,95350.18
2019-01-13T02:16:48.029Z,95352.28
2019-01-13T02:19:20.621Z,95348.95
2019-01-13T02:21:53.254Z,95349.03
2019-01-13T02:24:25.839Z,95345.47
2019-01-13T02:26:58.414Z,95353.52
2019-01-13T02:29:30.967Z,95354.53
2019-01-13T02:32:03.606Z,95355.06
2019-01-13T02:34:36.137Z,95353.72
2019-01-13T02:37:08.710Z,95360.38
2019-01-13T02:39:41.251Z,95353.42
2019-01-13T02:42:13.956Z,95355.91
2019-01-13T02:44:46.685Z,95351.91
2019-01-13T02:47:19.377Z,95359.33
2019-01-13T02:49:51.962Z,95355.67
2019-01-13T02:52:24.568Z,95346.05
2019-01-13T02:54:57.115Z,95344.70
2019-01-13T02:57:29.794Z,95342.98
2019-01-13T03:00:02.389Z,95342.95
2019-01-13T03:02:34.957Z,95340.91
2019-01-13T03:05:09.507Z,95342.51
2019-01-13T03:07:42.234Z,95331.93
2019-01-13T03:10:19.363Z,95330.34
2019-01-13T03:12:52.748Z,95328.27
2019-01-13T03:15:27.066Z,95335.03
2019-01-13T03:17:59.687Z,95324.59
2019-01-13T03:20:32.290Z,95317.22
2019-01-13T03:23:04.826Z,95315.20
2019-01-13T03:25:37.377Z,95314.12
2019-01-13T03:28:10.011Z,95313.52
2019-01-13T03:30:42.598Z,95308.52
2019-01-13T03:33:15.195Z,95307.09
2019-01-13T03:35:51.079Z,95297.66
2019-01-13T03:38:23.858Z,95292.41
2019-01-13T03:40:56.359Z,95291.20
2019-01-13T03:43:30.031Z,95286.00
2019-01-13T03:46:02.615Z,95280.63
2019-01-13T03:48:35.173Z,95279.71
2019-01-13T03:51:07.742Z,95274.19
2019-01-13T03:53:39.455Z,95265.04
2019-01-13T03:56:12.005Z,95263.08
2019-01-13T03:58:44.669Z,95266.17
2019-01-13T04:01:18.663Z,95261.61
2019-01-13T04:03:51.601Z,95261.23
2019-01-13T04:06:24.260Z,95254.82
2019-01-13T04:08:57.055Z,95256.25
2019-01-13T04:11:30.383Z,95259.65
2019-01-13T04:14:02.959Z,95260.48
2019-01-13T04:16:36.394Z,95266.13
2019-01-13T04:19:09.026Z,95272.73
2019-01-13T04:21:41.568Z,95269.70
2019-01-13T04:24:16.868Z,95279.32
2019-01-13T04:26:49.465Z,95273.55
2019-01-13T04:29:22.037Z,95263.33
2019-01-13T04:31:54.694Z,95271.75
2019-01-13T04:34:27.330Z,95273.55
2019-01-13T04:36:59.871Z,95267.02
2019-01-13T04:39:32.446Z,95270.52
2019-01-13T04:42:04.993Z,95269.77
2019-01-13T04:44:37.602Z,95275.73
2019-01-13T04:47:10.202Z,95268.53
2019-01-13T04:49:42.790Z,95269.09
2019-01-13T04:52:15.421Z,95263.63
2019-01-13T04:54:48.059Z,95265.48
2019-01-13T04:57:20.637Z,95256.48
2019-01-13T04:59:53.358Z,95233.84
2019-01-13T05:02:25.998Z,95228.78
2019-01-13T05:04:58.646Z,95220.09
2019-01-13T05:07:31.210Z,95208.86
2019-01-13T05:10:03.949Z,95218.80
2019-01-13T05:12:36.602Z,95222.00
2019-01-13T05:15:09.727Z,95227.65
2019-01-13T05:17:42.280Z,95232.19
2019-01-13T05:20:18.551Z,95238.63
2019-01-13T05:22:51.107Z,95236.16
2019-01-13T05:25:23.685Z,95233.94
2019-01-13T05:27:56.317Z,95225.75
2019-01-13T05:30:28.975Z,95233.06
2019-01-13T05:33:01.679Z,95235.89
2019-01-13T05:35:34.259Z,95225.91
2019-01-13T05:38:06.812Z,95224.26
2019-01-13T05:40:39.371Z,95222.92
2019-01-13T05:43:11.933Z,95224.56
2019-01-13T05:45:44.530Z,95232.49
2019-01-13T05:48:17.209Z,95218.29
2019-01-13T05:50:49.829Z,95229.04
2019-01-13T05:53:22.415Z,95231.78
2019-01-13T05:55:55.179Z,95235.02
2019-01-13T05:58:27.830Z,95233.01
2019-01-13T06:01:00.637Z,95238.56
2019-01-13T06:03:33.206Z,95253.66
2019-01-13T06:06:05.775Z,95247.22
2019-01-13T06:08:38.468Z,95256.90
2019-01-13T06:11:11.018Z,95252.89
2019-01-13T06:13:43.705Z,95248.88
2019-01-13T06:16:16.345Z,95246.45
2019-01-13T06:18:48.979Z,95238.88
2019-01-13T06:21:21.531Z,95240.43
2019-01-13T06:23:54.089Z,95232.97
2019-01-13T06:26:26.751Z,95239.55
2019-01-13T06:28:59.407Z,95241.14
2019-01-13T06:31:32.312Z,95241.70
2019-01-13T06:34:04.928Z,95230.49
2019-01-13T06:36:37.487Z,95233.62
2019-01-13T06:39:10.250Z,95220.33
2019-01-13T06:41:42.887Z,95221.84
2019-01-13T06:44:15.521Z,95213.77
2019-01-13T06:46:48.112Z,95221.47
2019-01-13T06:49:21.126Z,95219.46
2019-01-13T06:51:53.732Z,95228.82
2019-01-13T06:54:26.356Z,95225.90
2019-01-13T06:56:58.991Z,95215.55
2019-01-13T06:59:31.712Z,95221.72
2019-01-13T07:02:04.730Z,95213.23
2019-01-13T07:04:37.330Z,95220.43
2019-01-13T07:07:10.026Z,95219.09
2019-01-13T07:09:42.657Z,95227.03
2019-01-13T07:12:15.289Z,95229.73
2019-01-13T07:14:47.879Z,95217.24
2019-01-13T07:17:20.498Z,95220.43
2019-01-13T07:19:53.580Z,95216.89
2019-01-13T07:22:26.493Z,95222.85
2019-01-13T07:24:59.073Z,95226.41
2019-01-13T07:27:31.602Z,95214.22
2019-01-13T07:30:05.666Z,95205.51
2019-01-13T07:32:38.296Z,95216.53
2019-01-13T07:35:11.321Z,95209.33
2019-01-13T07:37:43.957Z,95216.70
2019-01-13T07:40:19.902Z,95213.55
2019-01-13T07:42:53.023Z,95214.02
2019-01-13T07:45:29.693Z,95207.27
2019-01-13T07:48:02.431Z,95214.02
2019-01-13T07:50:35.155Z,95220.50
2019-01-13T07:53:07.771Z,95230.86
2019-01-13T07:55:40.413Z,95225.95
2019-01-13T07:58:13.108Z,95212.56
2019-01-13T08:00:45.801Z,95207.22
2019-01-13T08:03:18.383Z,95205.36
2019-01-13T08:05:51.104Z,95214.37
2019-01-13T08:08:23.844Z,95211.34
2019-01-13T08:10:56.411Z,95203.41
2019-01-13T08:13:28.952Z,95188.84
2019-01-13T08:16:01.590Z,95188.58
2019-01-13T08:18:34.164Z,95183.49
2019-01-13T08:21:06.819Z,95184.16
2019-01-13T08:23:39.368Z,95183.94
2019-01-13T08:26:11.962Z,95185.84
2019-01-13T08:28:44.512Z,95182.08
2019-01-13T08:31:17.138Z,95173.10
2019-01-13T08:33:49.692Z,95172.95
2019-01-13T08:36:22.413Z,95176.30
2019-01-13T08:38:55.085Z,95185.20
2019-01-13T08:41:27.649Z,95177.83
2019-01-13T08:44:00.215Z,95176.66
2019-01-13T08:46:32.929Z,95183.63
2019-01-13T08:49:05.593Z,95181.48
2019-01-13T08:51:38.272Z,95181.73
2019-01-13T08:54:11.011Z,95186.45
2019-01-13T08:56:43.651Z,95190.83
2019-01-13T08:59:16.269Z,95196.41
2019-01-13T09:01:48.873Z,95199.69
2019-01-13T09:04:21.789Z,95193.31
2019-01-13T09:06:54.447Z,95189.26
2019-01-13T09:09:27.117Z,95180.27
2019-01-13T09:11:59.727Z,95165.41
2019-01-13T09:14:35.831Z,95155.63
2019-01-13T09:17:08.280Z,95155.30
2019-01-13T09:19:40.921Z,95152.53
2019-01-13T09:22:13.543Z,95150.16
2019-01-13T09:24:46.110Z,95149.92
2019-01-13T09:27:18.781Z,95145.91
2019-01-13T09:29:51.410Z,95142.66
2019-01-13T09:32:24.003Z,95125.33
2019-01-13T09:34:56.644Z,95124.61
2019-01-13T09:37:29.262Z,95113.39
2019-01-13T09:40:01.905Z,95111.31
2019-01-13T09:42:34.527Z,95104.05
2019-01-13T09:45:09.880Z,95108.23
2019-01-13T09:47:42.865Z,95111.23
2019-01-13T09:50:19.240Z,95114.84
2019-01-13T09:52:51.962Z,95111.98
2019-01-13T09:55:28.469Z,95116.70
2019-01-13T09:58:01.037Z,95108.18
2019-01-13T10:00:38.741Z,95110.78
2019-01-13T10:03:11.857Z,95107.30
2019-01-13T10:05:44.511Z,95117.51
2019-01-13T10:08:17.220Z,95120.02
2019-01-13T10:10:49.796Z,95118.45
2019-01-13T10:13:22.523Z,95111.12
2019-01-13T10:15:55.126Z,95109.02
2019-01-13T10:18:27.725Z,95109.58
2019-01-13T10:21:00.483Z,95115.52
2019-01-13T10:23:33.193Z,95104.73
2019-01-13T10:26:07.561Z,95106.18
2019-01-13T10:28:40.185Z,95105.91
2019-01-13T10:31:12.771Z,95101.06
2019-01-13T10:33:45.397Z,95086.40
2019-01-13T10:36:18.156Z,95083.82
2019-01-13T10:38:52.886Z,95084.13
2019-01-13T10:41:25.518Z,95089.09
2019-01-13T10:43:58.475Z,95091.35
2019-01-13T10:46:31.435Z,95090.51
2019-01-13T10:49:04.173Z,95085.22
2019-01-13T10:51:36.775Z,95090.38
2019-01-13T10:54:09.574Z,95078.45
2019-01-13T10:56:42.198Z,95087.45
2019-01-13T10:59:14.824Z,95078.61
2019-01-13T11:01:48.125Z,95089.70
2019-01-13T11:04:20.891Z,95088.41
2019-01-13T11:06:53.601Z,95080.20
2019-01-13T11:09:31.537Z,95076.83
2019-01-13T11:12:04.265Z,95081.38
2019-01-13T11:14:42.083Z,95070.72
2019-01-13T11:17:14.689Z,95068.81
2019-01-13T11:19:47.208Z,95068.53
2019-01-13T11:22:19.873Z,95055.47
2019-01-13T11:24:52.456Z,95046.58
2019-01-13T11:27:25.175Z,95039.32
2019-01-13T11:29:57.843Z,95044.45
2019-01-13T11:32:30.474Z,95057.36
2019-01-13T11:35:03.066Z,95062.02
2019-01-13T11:37:35.815Z,95055.13
2019-01-13T11:40:11.311Z,95047.09
2019-01-13T11:42:44.991Z,95042.72
2019-01-13T11:45:18.286Z,95042.67
2019-01-13T11:47:50.952Z,95037.52
2019-01-13T11:50:25.544Z,95047.03
2019-01-13T11:52:58.295Z,95047.53
2019-01-13T11:55:31.044Z,95042.25
2019-01-13T11:58:03.700Z,95039.66
2019-01-13T12:00:45.935Z,95024.34
2019-01-13T12:03:18.516Z,95030.97
2019-01-13T12:05:51.158Z,95025.17
2019-01-13T12:08:23.746Z,95011.94
2019-01-13T12:10:56.306Z,94999.22
2019-01-13T12:13:28.978Z,94991.45
2019-01-13T12:16:01.563Z,94985.37
2019-01-13T12:18:40.447Z,95000.97
2019-01-13T12:21:08.513Z,94994.04
2019-01-13T12:23:41.252Z,95003.53
2019-01-13T12:26:13.820Z,94997.42
2019-01-13T12:28:46.422Z,94989.38
2019-01-13T12:31:19.027Z,94983.29
2019-01-13T12:33:51.843Z,94982.66
2019-01-13T12:36:24.378Z,94981.03
2019-01-13T12:38:57.065Z,94985.23
2019-01-13T12:41:29.613Z,94979.75
2019-01-13T12:44:02.239Z,94974.61
2019-01-13T12:46:34.875Z,94969.44
2019-01-13T12:49:07.483Z,94978.63
2019-01-13T12:51:40.038Z,94975.73
2019-01-13T12:54:12.617Z,94980.57
2019-01-13T12:56:45.377Z,94987.50
2019-01-13T12:59:17.999Z,94976.83
2019-01-13T13:01:50.599Z,94976.51
2019-01-13T13:04:23.330Z,94985.35
2019-01-13T13:06:55.962Z,94972.75
2019-01-13T13:09:28.588Z,94970.59
2019-01-13T13:12:01.247Z,94983.05
2019-01-13T13:14:34.035Z,94972.39
2019-01-13T13:17:06.686Z,94970.28
2019-01-13T13:19:39.233Z,94972.05
2019-01-13T13:22:11.974Z,94960.29
2019-01-13T13:24:44.622Z,94955.63
2019-01-13T13:27:17.269Z,94946.94
2019-01-13T13:29:49.845Z,94937.22
2019-01-13T13:32:22.566Z,94923.53
2019-01-13T13:34:55.865Z,94922.41
2019-01-13T13:37:28.585Z,94919.30
2019-01-13T13:40:01.177Z,94915.73
2019-01-13T13:42:33.728Z,94910.74
2019-01-13T13:45:08.219Z,94901.54
2019-01-13T13:47:40.888Z,94903.30
2019-01-13T13:50:18.537Z,94893.09
2019-01-13T13:52:52.727Z,94894.90
2019-01-13T13:55:25.367Z,94909.71
2019-01-13T13:57:59.254Z,94901.78
2019-01-13T14:00:37.194Z,94885.47
2019-01-13T14:03:09.815Z,94891.57
2019-01-13T14:05:42.508Z,94890.55
2019-01-13T14:08:15.141Z,94894.38
2019-01-13T14:10:47.767Z,94883.94
2019-01-13T14:13:20.424Z,94893.08
2019-01-13T14:15:53.096Z,94898.44
2019-01-13T14:18:26.045Z,94891.98
2019-01-13T14:20:58.603Z,94892.96
2019-01-13T14:23:31.281Z,94882.86
2019-01-13T14:26:03.889Z,94883.34
2019-01-13T14:28:36.523Z,94892.42
2019-01-13T14:31:09.190Z,94903.25
2019-01-13T14:33:41.832Z,94902.83
2019-01-13T14:36:14.403Z,94906.47
2019-01-13T14:38:47.063Z,94904.36
2019-01-13T14:41:20.849Z,94897.44
2019-01-13T14:43:53.578Z,94919.50
2019-01-13T14:46:26.432Z,94905.30
2019-01-13T14:48:59.046Z,94907.89
2019-01-13T14:51:31.724Z,94895.33
2019-01-13T14:54:04.384Z,94902.59
2019-01-13T14:56:38.106Z,94900.67
2019-01-13T14:59:10.648Z,94891.40
2019-01-13T15:01:43.286Z,94877.84
2019-01-13T15:04:15.918Z,94880.64
2019-01-13T15:06:48.519Z,94871.61
2019-01-13T15:09:21.156Z,94875.48
2019-01-13T15:11:53.707Z,94851.25
2019-01-13T15:14:26.339Z,94836.61
2019-01-13T15:16:58.928Z,94838.08
2019-01-13T15:19:31.597Z,94823.41
2019-01-13T15:22:04.222Z,94825.47
2019-01-13T15:24:36.853Z,94825.36
2019-01-13T15:27:09.419Z,94830.81
2019-01-13T15:29:41.959Z,94837.91
2019-01-13T15:32:14.507Z,94826.89
2019-01-13T15:34:47.064Z,94834.45
2019-01-13T15:37:19.622Z,94830.03
2019-01-13T15:39:55.032Z,94820.72
2019-01-13T15:42:30.124Z,94823.50
2019-01-13T15:45:02.889Z,94832.85
2019-01-13T15:47:35.463Z,94817.97
2019-01-13T15:50:12.257Z,94822.86
2019-01-13T15:52:45.293Z,94825.45
2019-01-13T15:55:18.873Z,94819.05
2019-01-13T15:57:51.757Z,94824.72
2019-01-13T16:00:30.981Z,94811.23
2019-01-13T16:03:03.758Z,94823.77
2019-01-13T16:05:36.276Z,94821.72
2019-01-13T16:08:09.266Z,94815.50
2019-01-13T16:10:42.155Z,94821.20
2019-01-13T16:13:14.756Z,94829.30
2019-01-13T16:15:47.374Z,94833.09
2019-01-13T16:18:20.004Z,94822.03
2019-01-13T16:20:52.587Z,94817.14
2019-01-13T16:23:25.226Z,94820.20
2019-01-13T16:25:57.952Z,94834.05
2019-01-13T16:28:30.506Z,94816.38
2019-01-13T16:31:03.152Z,94801.97
2019-01-13T16:33:35.762Z,94776.70
2019-01-13T16:36:08.355Z,94788.52
2019-01-13T16:38:40.918Z,94780.77
2019-01-13T16:41:13.479Z,94784.06
2019-01-13T16:43:46.043Z,94782.91
2019-01-13T16:46:18.776Z,94782.80
2019-01-13T16:48:51.358Z,94785.49
2019-01-13T16:51:24.058Z,94770.02
2019-01-13T16:53:56.687Z,94757.70
2019-01-13T16:56:29.313Z,94747.52
2019-01-13T16:59:02.121Z,94745.41
2019-01-13T17:01:34.753Z,94721.88
2019-01-13T17:04:07.431Z,94726.78
2019-01-13T17:06:40.012Z,94726.05
2019-01-13T17:09:12.714Z,94739.19
2019-01-13T17:11:45.326Z,94739.47
2019-01-13T17:14:17.886Z,94728.75
2019-01-13T17:16:50.525Z,94708.04
2019-01-13T17:19:23.080Z,94709.48
2019-01-13T17:21:55.681Z,94710.41
2019-01-13T17:24:28.269Z,94686.99
2019-01-13T17:27:00.832Z,94682.28
2019-01-13T17:29:33.455Z,94685.70
2019-01-13T17:32:06.283Z,94684.58
2019-01-13T17:34:38.909Z,94681.63
2019-01-13T17:37:11.840Z,94676.51
2019-01-13T17:39:44.542Z,94671.80
2019-01-13T17:42:17.104Z,94684.48
2019-01-13T17:44:49.703Z,94661.45
2019-01-13T17:47:22.294Z,94658.17
2019-01-13T17:49:54.871Z,94657.28
2019-01-13T17:52:27.685Z,94643.35
2019-01-13T17:55:02.345Z,94636.69
2019-01-13T17:57:34.872Z,94632.54
2019-01-13T18:00:22.639Z,94636.20
2019-01-13T18:02:55.459Z,94632.27
2019-01-13T18:05:28.119Z,94619.31
2019-01-13T18:08:00.781Z,94610.36
2019-01-13T18:10:33.421Z,94616.23
2019-01-13T18:13:06.188Z,94636.29
2019-01-13T18:15:38.904Z,94634.63
2019-01-13T18:18:11.478Z,94635.34
2019-01-13T18:20:44.106Z,94624.53
2019-01-13T18:23:16.690Z,94633.16
2019-01-13T18:25:49.309Z,94622.73
2019-01-13T18:28:21.981Z,94636.11
2019-01-13T18:30:55.939Z,94616.16
2019-01-13T18:33:27.815Z,94597.27
2019-01-13T18:36:00.341Z,94584.21
2019-01-13T18:38:32.885Z,94589.80
2019-01-13T18:41:05.582Z,94609.75
2019-01-13T18:43:38.239Z,94605.09
2019-01-13T18:46:10.846Z,94601.33
2019-01-13T18:48:43.625Z,94610.86
2019-01-13T18:51:16.284Z,94615.78
2019-01-13T18:53:48.958Z,94600.27
2019-01-13T18:56:22.015Z,94588.62
2019-01-13T18:58:54.759Z,94584.62
2019-01-13T19:01:27.593Z,94592.73
2019-01-13T19:04:00.312Z,94584.28
2019-01-13T19:06:33.005Z,94567.11
2019-01-13T19:09:10.516Z,94575.16
2019-01-13T19:11:48.393Z,94581.77
2019-01-13T19:14:48.412Z,94586.70
2019-01-13T19:17:24.716Z,94586.98
2019-01-13T19:20:12.811Z,94605.30
2019-01-13T19:22:49.076Z,94596.39
2019-01-13T19:25:31.439Z,94590.84
2019-01-13T19:28:04.655Z,94578.88
2019-01-13T19:30:37.309Z,94574.47
2019-01-13T19:33:10.106Z,94565.73
2019-01-13T19:35:42.646Z,94579.16
2019-01-13T19:38:15.415Z,94566.59
2019-01-13T19:40:48.033Z,94570.31
2019-01-13T19:43:20.835Z,94564.28
2019-01-13T19:45:53.402Z,94571.19
2019-01-13T19:48:26.089Z,94570.16
2019-01-13T19:50:58.712Z,94573.27
2019-01-13T19:53:31.386Z,94567.61
2019-01-13T19:56:04.027Z,94579.03
2019-01-13T19:58:36.660Z,94576.56
2019-01-13T20:01:09.301Z,94574.05
2019-01-13T20:03:41.931Z,94573.93
2019-01-13T20:06:14.590Z,94577.07
2019-01-13T20:08:47.178Z,94568.66
2019-01-13T20:11:19.761Z,94565.77
2019-01-13T20:13:52.400Z,94573.83
2019-01-13T20:16:25.132Z,94594.23
2019-01-13T20:18:57.766Z,94607.50
2019-01-13T20:21:30.337Z,94614.59
2019-01-13T20:24:02.944Z,94629.77
2019-01-13T20:26:35.550Z,94620.16
2019-01-13T20:29:08.227Z,94634.91
2019-01-13T20:31:41.041Z,94628.00
2019-01-13T20:34:13.646Z,94632.33
2019-01-13T20:36:46.162Z,94630.67
2019-01-13T20:39:18.797Z,94635.45
2019-01-13T20:41:51.344Z,94652.34
2019-01-13T20:44:24.160Z,94627.59
2019-01-13T20:46:56.803Z,94624.27
2019-01-13T20:49:29.414Z,94617.72
2019-01-13T20:52:01.994Z,94627.91
2019-01-13T20:54:34.570Z,94629.98
2019-01-13T20:57:07.180Z,94615.70
2019-01-13T20:59:39.793Z,94613.74
2019-01-13T21:02:12.378Z,94614.90
2019-01-13T21:04:45.522Z,94619.08
2019-01-13T21:07:18.092Z,94617.09
2019-01-13T21:09:50.720Z,94609.20
2019-01-13T21:12:23.297Z,94610.48
2019-01-13T21:14:55.943Z,94604.95
2019-01-13T21:17:28.566Z,94597.42
2019-01-13T21:20:01.176Z,94600.25
2019-01-13T21:22:33.979Z,94596.23
2019-01-13T21:25:09.384Z,94594.12
2019-01-13T21:27:42.455Z,94590.69
2019-01-13T21:30:22.289Z,94599.97
2019-01-13T21:32:55.033Z,94588.07
2019-01-13T21:35:33.798Z,94584.29
2019-01-13T21:38:01.939Z,94580.89
2019-01-13T21:40:34.619Z,94587.27
2019-01-13T21:43:07.213Z,94604.44
2019-01-13T21:45:39.844Z,94581.87
2019-01-13T21:48:12.476Z,94575.13
2019-01-13T21:50:45.130Z,94555.36
2019-01-13T21:53:17.765Z,94542.95
2019-01-13T21:55:50.474Z,94541.72
2019-01-13T21:58:23.192Z,94527.99
2019-01-13T22:00:55.830Z,94512.19
2019-01-13T22:03:28.479Z,94504.36
2019-01-13T22:06:01.105Z,94500.96
2019-01-13T22:08:34.962Z,94495.31
2019-01-13T22:11:07.632Z,94484.74
2019-01-13T22:13:40.380Z,94449.67
2019-01-13T22:16:12.986Z,94418.62
2019-01-13T22:18:45.562Z,94398.50
2019-01-13T22:21:18.314Z,94390.25
2019-01-13T22:23:50.886Z,94404.71
2019-01-13T22:26:23.626Z,94416.05
2019-01-13T22:28:56.278Z,94422.13
2019-01-13T22:31:28.924Z,94406.25
2019-01-13T22:34:01.504Z,94398.09
2019-01-13T22:36:34.280Z,94397.28
2019-01-13T22:39:09.269Z,94398.27
2019-01-13T22:41:41.923Z,94430.17
2019-01-13T22:44:14.573Z,94444.44
2019-01-13T22:46:47.239Z,94469.83
2019-01-13T22:49:19.890Z,94488.41
2019-01-13T22:51:52.547Z,94496.33
2019-01-13T22:54:25.307Z,94494.02
2019-01-13T22:56:58.161Z,94475.05
2019-01-13T22:59:30.686Z,94468.46
2019-01-13T23:02:03.496Z,94456.50
2019-01-13T23:04:36.137Z,94462.24
2019-01-13T23:07:07.982Z,94466.66
2019-01-13T23:09:40.571Z,94465.08
2019-01-13T23:12:13.198Z,94474.36
2019-01-13T23:14:45.839Z,94469.86
2019-01-13T23:17:18.417Z,94478.58
2019-01-13T23:19:51.023Z,94486.06
2019-01-13T23:22:23.875Z,94481.07
2019-01-13T23:24:56.424Z,94471.05
2019-01-13T23:27:29.030Z,94485.66
2019-01-13T23:30:02.412Z,94480.72
2019-01-13T23:32:36.971Z,94476.20
2019-01-13T23:35:09.601Z,94481.43
2019-01-13T23:37:42.280Z,94481.30
2019-01-13T23:40:15.034Z,94482.20
2019-01-13T23:42:47.667Z,94472.63
2019-01-13T23:45:20.704Z,94466.16
2019-01-13T23:47:53.309Z,94460.73
2019-01-13T23:50:26.359Z,94463.09
2019-01-13T23:52:58.938Z,94462.33
2019-01-13T23:55:31.539Z,94470.83
2019-01-13T23:58:04.237Z,94476.44
